Bismarck Municipal Airport Bismarck US
ICAO: KBIS
IATA: BIS
Category: Medium
Scheduled Services: Yes

Elevation: 1661 ft
TransAlt. 18000 ft.

Airport Communications:
APP/DEP:126.3
ATIS:119.35
CTAF:118.3
GND:121.9
ARNG OPS:49.8
GRAND FORKS RDO:122.2
TWR:118.3
UNICOM:122.95

KBIS Zoom In..

Runways:

(A) RW 03 length 6600 ft width 100 ft
---- / hdg 32

(B) RW 13 length 8794 ft width 150 ft
ILS 111.50 / hdg 131

(C) RW 21 length 6600 ft width 100 ft
---- / hdg 212

(D) RW 31 length 8794 ft width 150 ft
ILS 110.30 / hdg 311

Location; KBIS
Day. 24 / Time. 01.52 Zulu
* Altimeter: 30.16
* Temperature: -08° c. -17.6°f.
* Wind from: 070° Speed 05 kn.
Dewpoint: -09° c.
Visibility: 10 Statute Miles.
Clouds: Clear (automated report).

KBIS 240152Z 07005KT 10SM CLR M08/M09 A3016 RMK AO2 SLP246 T10831094


Wind From 070°
Speed 05 kn.

YouTube Music Video
 
jpsmedia.com for Web Design  worldairports.se 2018   terms of use